createdAt,value
2022-11-25T00:00:39.696Z,16.10
2022-11-25T00:03:07.121Z,20.17
2022-11-25T00:05:41.305Z,15.80
2022-11-25T00:08:15.383Z,14.23
2022-11-25T00:10:56.311Z,13.13
2022-11-25T00:13:23.693Z,11.63
2022-11-25T00:15:51.104Z,9.10
2022-11-25T00:18:25.294Z,12.23
2022-11-25T00:20:52.723Z,11.60
2022-11-25T00:23:20.073Z,15.90
2022-11-25T00:25:54.359Z,7.07
2022-11-25T00:28:21.760Z,9.40
2022-11-25T00:30:49.280Z,14.20
2022-11-25T00:33:25.320Z,7.47
2022-11-25T00:35:52.696Z,11.60
2022-11-25T00:38:20.082Z,9.10
2022-11-25T00:41:14.292Z,23.87
2022-11-25T00:44:00.709Z,15.73
2022-11-25T00:46:34.327Z,13.27
2022-11-25T00:49:01.673Z,13.27
2022-11-25T00:51:29.403Z,10.07
2022-11-25T00:54:03.332Z,13.50
2022-11-25T00:56:30.783Z,17.10
2022-11-25T00:58:58.765Z,9.83
2022-11-25T01:01:33.365Z,15.83
2022-11-25T01:04:00.848Z,11.13
2022-11-25T01:06:41.319Z,10.70
2022-11-25T01:09:15.736Z,12.37
2022-11-25T01:11:49.301Z,13.23
2022-11-25T01:14:16.873Z,12.53
2022-11-25T01:16:44.323Z,10.43
2022-11-25T01:19:19.325Z,9.63
2022-11-25T01:21:47.118Z,10.37
2022-11-25T01:24:16.119Z,7.73
2022-11-25T01:26:51.315Z,10.23
2022-11-25T01:29:19.531Z,9.53
2022-11-25T01:31:48.624Z,11.30
2022-11-25T01:34:28.307Z,14.80
2022-11-25T01:36:55.718Z,12.67
2022-11-25T01:39:31.654Z,11.73
2022-11-25T01:42:07.340Z,14.40
2022-11-25T01:44:39.321Z,11.43
2022-11-25T01:47:31.331Z,7.77
2022-11-25T01:50:05.873Z,13.23
2022-11-25T01:52:53.292Z,11.87
2022-11-25T01:55:27.017Z,12.67
2022-11-25T01:58:06.342Z,10.13
2022-11-25T02:00:34.015Z,9.03
2022-11-25T02:03:01.696Z,8.40
2022-11-25T02:05:55.414Z,9.63
2022-11-25T02:08:33.420Z,15.43
2022-11-25T02:11:14.324Z,7.57
2022-11-25T02:13:42.432Z,10.73
2022-11-25T02:16:10.083Z,5.60
2022-11-25T02:18:44.284Z,11.17
2022-11-25T02:21:14.275Z,7.13
2022-11-25T02:24:03.331Z,8.47
2022-11-25T02:26:31.071Z,5.93
2022-11-25T02:28:58.804Z,10.23
2022-11-25T02:31:33.423Z,9.00
2022-11-25T02:34:01.321Z,9.30
2022-11-25T02:36:28.735Z,8.17
2022-11-25T02:39:05.414Z,6.73
2022-11-25T02:41:39.148Z,10.10
2022-11-25T02:44:13.426Z,10.10
2022-11-25T02:46:40.901Z,5.87
2022-11-25T02:49:09.891Z,10.77
2022-11-25T02:51:47.426Z,10.63
2022-11-25T02:54:15.845Z,9.90
2022-11-25T02:56:43.842Z,7.87
2022-11-25T02:59:18.359Z,9.03
2022-11-25T03:01:45.796Z,8.80
2022-11-25T03:04:13.474Z,8.90
2022-11-25T03:06:47.376Z,7.37
2022-11-25T03:09:21.608Z,5.47
2022-11-25T03:12:14.371Z,6.90
2022-11-25T03:14:41.817Z,7.43
2022-11-25T03:17:09.170Z,10.57
2022-11-25T03:19:43.344Z,7.20
2022-11-25T03:22:10.952Z,7.03
2022-11-25T03:24:38.558Z,11.63
2022-11-25T03:27:12.365Z,6.00
2022-11-25T03:29:39.746Z,9.90
2022-11-25T03:32:09.734Z,14.23
2022-11-25T03:34:43.334Z,11.50
2022-11-25T03:37:10.818Z,9.77
2022-11-25T03:39:38.276Z,6.03
2022-11-25T03:42:12.327Z,8.03
2022-11-25T03:44:39.778Z,11.70
2022-11-25T03:47:07.243Z,10.77
2022-11-25T03:49:48.353Z,9.17
2022-11-25T03:52:16.003Z,10.33
2022-11-25T03:54:43.585Z,7.50
2022-11-25T03:57:18.392Z,6.30
2022-11-25T03:59:46.164Z,12.30
2022-11-25T04:02:14.371Z,8.97
2022-11-25T04:04:49.436Z,10.43
2022-11-25T04:07:30.627Z,10.13
2022-11-25T04:10:04.352Z,6.47
2022-11-25T04:12:47.117Z,7.07
2022-11-25T04:15:22.549Z,14.43
2022-11-25T04:17:49.881Z,6.07
2022-11-25T04:20:17.425Z,6.13
2022-11-25T04:22:51.344Z,3.83
2022-11-25T04:25:18.786Z,4.80
2022-11-25T04:27:46.479Z,9.33
2022-11-25T04:30:20.343Z,7.80
2022-11-25T04:32:47.747Z,9.57
2022-11-25T04:35:15.262Z,6.53
2022-11-25T04:37:49.367Z,4.27
2022-11-25T04:40:16.864Z,5.80
2022-11-25T04:42:44.240Z,10.77
2022-11-25T04:45:23.637Z,8.83
2022-11-25T04:47:51.684Z,5.27
2022-11-25T04:50:29.345Z,7.67
2022-11-25T04:52:56.868Z,3.40
2022-11-25T04:55:24.256Z,6.20
2022-11-25T04:57:58.367Z,2.37
2022-11-25T05:00:25.831Z,7.43
2022-11-25T05:02:53.410Z,4.13
2022-11-25T05:05:28.336Z,6.93
2022-11-25T05:08:16.452Z,4.83
2022-11-25T05:10:50.361Z,4.70
2022-11-25T05:13:17.832Z,4.70
2022-11-25T05:15:45.212Z,7.40
2022-11-25T05:18:19.344Z,3.93
2022-11-25T05:20:46.758Z,6.67
2022-11-25T05:23:14.215Z,3.93
2022-11-25T05:25:48.438Z,3.40
2022-11-25T05:28:16.470Z,6.03
2022-11-25T05:30:45.447Z,9.07
2022-11-25T05:33:19.378Z,5.87
2022-11-25T05:35:58.343Z,4.33
2022-11-25T05:38:32.351Z,3.43
2022-11-25T05:41:05.608Z,5.10
2022-11-25T05:43:39.392Z,2.70
2022-11-25T05:46:08.056Z,8.53
2022-11-25T05:48:36.117Z,3.10
2022-11-25T05:51:11.359Z,6.07
2022-11-25T05:53:38.942Z,9.33
2022-11-25T05:56:07.921Z,4.37
2022-11-25T05:58:43.365Z,5.33
2022-11-25T06:01:12.978Z,5.70
2022-11-25T06:03:41.734Z,7.40
2022-11-25T06:06:17.420Z,3.37
2022-11-25T06:08:58.516Z,5.10
2022-11-25T06:11:32.361Z,7.30
2022-11-25T06:13:59.832Z,3.17
2022-11-25T06:16:28.563Z,10.80
2022-11-25T06:19:02.440Z,3.37
2022-11-25T06:21:29.927Z,4.40
2022-11-25T06:23:57.502Z,5.47
2022-11-25T06:26:31.417Z,2.77
2022-11-25T06:28:58.970Z,5.83
2022-11-25T06:31:27.290Z,7.13
2022-11-25T06:34:01.377Z,5.90
2022-11-25T06:36:29.131Z,4.70
2022-11-25T06:38:56.625Z,3.73
2022-11-25T06:41:31.382Z,6.80
2022-11-25T06:43:58.889Z,2.57
2022-11-25T06:46:26.590Z,5.70
2022-11-25T06:49:01.402Z,4.53
2022-11-25T06:51:29.064Z,6.60
2022-11-25T06:54:00.395Z,7.80
2022-11-25T06:56:35.764Z,4.57
2022-11-25T06:59:04.223Z,4.60
2022-11-25T07:01:31.861Z,3.70
2022-11-25T07:04:09.753Z,3.40
2022-11-25T07:06:37.220Z,11.00
2022-11-25T07:09:17.704Z,6.97
2022-11-25T07:11:45.934Z,2.20
2022-11-25T07:14:15.718Z,5.00
2022-11-25T07:16:51.684Z,8.47
2022-11-25T07:19:20.470Z,9.67
2022-11-25T07:21:50.313Z,6.67
2022-11-25T07:24:26.292Z,3.40
2022-11-25T07:26:53.992Z,4.87
2022-11-25T07:29:57.892Z,2.53
2022-11-25T07:32:17.387Z,1.67
2022-11-25T07:34:49.876Z,5.40
2022-11-25T07:37:18.023Z,3.37
2022-11-25T07:39:53.879Z,2.30
2022-11-25T07:42:25.867Z,4.07
2022-11-25T07:44:53.337Z,5.70
2022-11-25T07:47:26.960Z,3.00
2022-11-25T07:49:54.410Z,4.83
2022-11-25T07:52:22.163Z,6.03
2022-11-25T07:54:55.945Z,3.83
2022-11-25T07:57:23.404Z,5.77
2022-11-25T07:59:50.999Z,5.97
2022-11-25T08:02:24.962Z,4.90
2022-11-25T08:04:52.380Z,7.27
2022-11-25T08:07:36.466Z,5.00
2022-11-25T08:10:11.312Z,3.13
2022-11-25T08:12:44.906Z,4.67
2022-11-25T08:15:12.524Z,7.17
2022-11-25T08:17:40.186Z,4.87
2022-11-25T08:20:14.938Z,3.63
2022-11-25T08:22:42.533Z,3.60
2022-11-25T08:25:10.208Z,4.63
2022-11-25T08:27:43.922Z,4.40
2022-11-25T08:30:12.073Z,4.13
2022-11-25T08:32:40.412Z,4.53
2022-11-25T08:35:14.939Z,1.77
2022-11-25T08:37:42.372Z,4.20
2022-11-25T08:40:11.381Z,2.97
2022-11-25T08:42:45.894Z,6.00
2022-11-25T08:45:13.728Z,2.67
2022-11-25T08:47:41.324Z,9.23
2022-11-25T08:50:19.949Z,6.13
2022-11-25T08:52:47.829Z,7.00
2022-11-25T08:55:15.690Z,7.50
2022-11-25T08:57:49.888Z,5.90
2022-11-25T09:00:18.154Z,6.90
2022-11-25T09:02:45.655Z,6.07
2022-11-25T09:05:23.839Z,5.67
2022-11-25T09:07:57.905Z,3.50
2022-11-25T09:10:39.906Z,4.87
2022-11-25T09:13:07.903Z,4.73
2022-11-25T09:15:38.060Z,10.17
2022-11-25T09:18:16.824Z,5.60
2022-11-25T09:20:44.253Z,7.43
2022-11-25T09:23:11.744Z,4.93
2022-11-25T09:25:45.895Z,4.37
2022-11-25T09:28:13.399Z,6.07
2022-11-25T09:30:40.789Z,10.80
2022-11-25T09:33:15.862Z,3.77
2022-11-25T09:35:43.718Z,4.67
2022-11-25T09:38:11.236Z,4.65
2022-11-25T09:41:02.857Z,7.27
2022-11-25T09:44:33.898Z,5.47
2022-11-25T09:47:36.957Z,5.03
2022-11-25T09:50:46.649Z,4.10
2022-11-25T09:53:57.905Z,6.15
2022-11-25T09:56:38.198Z,3.83
2022-11-25T09:59:20.930Z,3.70
2022-11-25T10:01:58.917Z,4.00
2022-11-25T10:04:52.934Z,4.32
2022-11-25T10:07:50.039Z,6.80
2022-11-25T10:10:50.152Z,5.68
2022-11-25T10:13:46.897Z,2.38
2022-11-25T10:16:33.160Z,5.47
2022-11-25T10:19:07.175Z,3.10
2022-11-25T10:21:41.060Z,2.63
2022-11-25T10:24:15.067Z,5.38
2022-11-25T10:26:52.186Z,3.60
2022-11-25T10:29:31.012Z,2.33
2022-11-25T10:32:29.088Z,2.10
2022-11-25T10:35:02.562Z,4.90
2022-11-25T10:37:46.063Z,4.05
2022-11-25T10:40:17.983Z,1.83
2022-11-25T10:42:45.550Z,1.90
2022-11-25T10:45:20.044Z,1.98
2022-11-25T10:48:06.333Z,3.20
2022-11-25T10:50:58.066Z,1.80
2022-11-25T10:53:31.769Z,2.93
2022-11-25T10:56:10.055Z,2.05
2022-11-25T10:58:40.151Z,4.17
2022-11-25T11:01:30.128Z,1.63
2022-11-25T11:04:15.152Z,0.47
2022-11-25T11:06:54.157Z,1.10
2022-11-25T11:09:46.426Z,1.60
2022-11-25T11:12:32.059Z,0.90
2022-11-25T11:15:23.688Z,2.00
2022-11-25T11:17:58.072Z,2.10
2022-11-25T11:20:28.830Z,1.70
2022-11-25T11:23:08.818Z,2.93
2022-11-25T11:25:42.452Z,4.30
2022-11-25T11:28:41.059Z,2.57
2022-11-25T11:31:25.128Z,1.63
2022-11-25T11:34:25.080Z,2.23
2022-11-25T11:37:00.682Z,2.93
2022-11-25T11:39:53.060Z,2.37
2022-11-25T11:42:36.757Z,2.90
2022-11-25T11:45:23.139Z,4.23
2022-11-25T11:48:11.006Z,3.13
2022-11-25T11:50:55.116Z,0.83
2022-11-25T11:53:34.926Z,1.67
2022-11-25T11:59:26.099Z,1.43
2022-11-25T12:02:22.206Z,2.00
2022-11-25T12:05:10.774Z,2.20
2022-11-25T12:08:08.120Z,2.53
2022-11-25T12:10:48.234Z,3.60
2022-11-25T12:13:45.122Z,6.17
2022-11-25T12:16:56.116Z,5.67
2022-11-25T12:20:07.066Z,5.60
2022-11-25T12:22:58.172Z,5.87
2022-11-25T12:25:41.162Z,6.63
2022-11-25T12:28:29.253Z,9.03
2022-11-25T12:31:22.133Z,7.07
2022-11-25T12:34:14.067Z,5.93
2022-11-25T12:36:51.093Z,4.73
2022-11-25T12:40:01.869Z,6.20
2022-11-25T12:42:37.091Z,5.80
2022-11-25T12:45:07.777Z,9.97
2022-11-25T12:47:35.472Z,4.73
2022-11-25T12:50:10.125Z,8.90
2022-11-25T12:52:55.809Z,8.53
2022-11-25T12:55:32.143Z,8.63
2022-11-25T12:58:24.651Z,5.60
2022-11-25T13:01:27.282Z,8.77
2022-11-25T13:04:19.799Z,12.80
2022-11-25T13:07:11.104Z,9.13
2022-11-25T13:10:36.170Z,9.10
2022-11-25T13:13:37.359Z,6.60
2022-11-25T13:16:08.443Z,8.00
2022-11-25T13:18:48.100Z,8.90
2022-11-25T13:21:17.048Z,9.20
2022-11-25T13:23:55.170Z,7.83
2022-11-25T13:26:37.790Z,8.57
2022-11-25T13:29:21.141Z,11.63
2022-11-25T13:31:59.482Z,7.73
2022-11-25T13:34:37.360Z,11.03
2022-11-25T13:37:40.724Z,12.57
2022-11-25T13:40:28.104Z,9.40
2022-11-25T13:42:55.705Z,8.87
2022-11-25T13:45:27.699Z,16.50
2022-11-25T13:48:11.141Z,8.50
2022-11-25T13:51:03.557Z,14.10
2022-11-25T13:54:04.137Z,10.77
2022-11-25T13:56:35.489Z,11.00
2022-11-25T13:59:19.340Z,9.57
2022-11-25T14:01:46.871Z,7.83
2022-11-25T14:04:17.094Z,8.70
2022-11-25T14:07:04.131Z,10.93
2022-11-25T14:10:17.710Z,7.70
2022-11-25T14:13:16.218Z,9.77
2022-11-25T14:15:43.759Z,10.27
2022-11-25T14:19:03.159Z,10.77
2022-11-25T14:21:56.177Z,11.43
2022-11-25T14:24:37.118Z,6.63
2022-11-25T14:27:12.178Z,9.77
2022-11-25T14:30:06.139Z,10.53
2022-11-25T14:33:12.501Z,12.17
2022-11-25T14:35:54.172Z,6.20
2022-11-25T14:38:43.581Z,10.27
2022-11-25T14:41:43.646Z,9.27
2022-11-25T14:44:21.898Z,9.33
2022-11-25T14:47:04.089Z,12.83
2022-11-25T14:50:00.123Z,10.37
2022-11-25T14:52:44.221Z,8.93
2022-11-25T14:55:12.930Z,8.23
2022-11-25T14:57:51.211Z,12.90
2022-11-25T15:00:19.261Z,16.27
2022-11-25T15:03:13.235Z,16.27
2022-11-25T15:05:41.192Z,15.53
2022-11-25T15:08:31.150Z,21.03
2022-11-25T15:11:05.795Z,12.83
2022-11-25T15:13:57.152Z,26.50
2022-11-25T15:16:35.220Z,32.67
2022-11-25T15:19:21.138Z,8.00
2022-11-25T15:22:21.932Z,14.97
2022-11-25T15:24:55.565Z,13.33
2022-11-25T15:27:28.628Z,13.00
2022-11-25T15:30:04.102Z,15.33
2022-11-25T15:32:38.475Z,15.17
2022-11-25T15:35:15.095Z,14.97
2022-11-25T15:37:42.631Z,12.83
2022-11-25T15:40:40.132Z,11.60
2022-11-25T15:43:22.348Z,16.30
2022-11-25T15:45:59.156Z,14.73
2022-11-25T15:48:28.466Z,16.43
2022-11-25T15:51:32.136Z,19.00
2022-11-25T15:54:08.463Z,18.27
2022-11-25T15:56:47.112Z,17.23
2022-11-25T15:59:41.081Z,14.27
2022-11-25T16:02:43.219Z,10.87
2022-11-25T16:05:14.074Z,11.37
2022-11-25T16:07:57.242Z,15.00
2022-11-25T16:10:51.330Z,18.33
2022-11-25T16:13:37.259Z,15.00
2022-11-25T16:16:30.261Z,12.90
2022-11-25T16:19:24.140Z,13.10
2022-11-25T16:22:05.456Z,11.57
2022-11-25T16:25:01.832Z,10.17
2022-11-25T16:27:31.414Z,13.07
2022-11-25T16:30:23.313Z,11.00
2022-11-25T16:32:50.754Z,27.43
2022-11-25T16:35:22.254Z,14.80
2022-11-25T16:37:56.203Z,15.97
2022-11-25T16:40:24.589Z,12.63
2022-11-25T16:42:53.420Z,15.23
2022-11-25T16:45:30.190Z,16.57
2022-11-25T16:47:57.686Z,10.27
2022-11-25T16:50:25.411Z,18.83
2022-11-25T16:52:59.132Z,17.07
2022-11-25T16:55:26.700Z,18.63
2022-11-25T16:57:54.482Z,18.90
2022-11-25T17:00:28.111Z,16.37
2022-11-25T17:02:55.646Z,14.60
2022-11-25T17:05:25.706Z,17.87
2022-11-25T17:08:00.167Z,64.43
2022-11-25T17:10:34.416Z,34.37
2022-11-25T17:13:09.141Z,24.57
2022-11-25T17:15:38.241Z,19.70
2022-11-25T17:18:08.130Z,17.53
2022-11-25T17:20:42.112Z,15.73
2022-11-25T17:23:15.742Z,14.93
2022-11-25T17:25:55.118Z,22.07
2022-11-25T17:28:22.507Z,14.10
2022-11-25T17:30:50.006Z,13.87
2022-11-25T17:33:26.194Z,17.50
2022-11-25T17:35:53.628Z,19.30
2022-11-25T17:38:21.832Z,11.60
2022-11-25T17:40:57.182Z,18.10
2022-11-25T17:43:24.618Z,20.47
2022-11-25T17:45:52.114Z,15.53
2022-11-25T17:48:26.119Z,16.87
2022-11-25T17:50:53.505Z,18.13
2022-11-25T17:53:21.015Z,18.20
2022-11-25T17:55:55.167Z,15.67
2022-11-25T17:58:22.814Z,19.33
2022-11-25T18:00:50.274Z,14.63
2022-11-25T18:03:24.186Z,16.63
2022-11-25T18:05:51.670Z,16.90
2022-11-25T18:08:32.218Z,13.83
2022-11-25T18:11:07.960Z,18.83
2022-11-25T18:13:47.144Z,14.40
2022-11-25T18:16:17.324Z,20.10
2022-11-25T18:18:44.854Z,14.23
2022-11-25T18:21:20.138Z,25.37
2022-11-25T18:23:47.599Z,13.30
2022-11-25T18:26:15.059Z,14.17
2022-11-25T18:28:49.159Z,14.43
2022-11-25T18:31:16.704Z,16.23
2022-11-25T18:33:44.291Z,17.47
2022-11-25T18:36:20.135Z,12.17
2022-11-25T18:38:48.494Z,14.23
2022-11-25T18:41:28.182Z,14.87
2022-11-25T18:43:56.569Z,13.53
2022-11-25T18:46:24.045Z,18.23
2022-11-25T18:49:01.227Z,20.77
2022-11-25T18:51:28.721Z,14.00
2022-11-25T18:53:56.119Z,10.03
2022-11-25T18:56:30.238Z,10.23
2022-11-25T18:59:00.070Z,12.47
2022-11-25T19:01:28.155Z,17.03
2022-11-25T19:04:04.211Z,14.57
2022-11-25T19:06:32.494Z,16.93
2022-11-25T19:09:13.262Z,16.73
2022-11-25T19:11:45.832Z,13.33
2022-11-25T19:14:37.530Z,14.60
2022-11-25T19:17:08.770Z,8.23
2022-11-25T19:19:44.229Z,10.07
2022-11-25T19:22:15.290Z,12.53
2022-11-25T19:24:43.573Z,13.10
2022-11-25T19:27:26.180Z,11.40
2022-11-25T19:29:54.736Z,10.20
2022-11-25T19:32:35.209Z,14.07
2022-11-25T19:35:07.075Z,13.50
2022-11-25T19:37:34.562Z,13.27
2022-11-25T19:40:09.179Z,11.43
2022-11-25T19:42:37.110Z,14.00
2022-11-25T19:45:04.799Z,11.43
2022-11-25T19:47:39.190Z,9.77
2022-11-25T19:50:08.093Z,12.23
2022-11-25T19:52:38.220Z,14.40
2022-11-25T19:55:22.184Z,8.40
2022-11-25T19:57:50.477Z,10.57
2022-11-25T20:00:20.146Z,13.20
2022-11-25T20:02:57.374Z,14.23
2022-11-25T20:05:32.605Z,12.43
2022-11-25T20:08:07.225Z,15.37
2022-11-25T20:10:42.988Z,9.03
2022-11-25T20:13:18.438Z,14.93
2022-11-25T20:15:46.636Z,9.40
2022-11-25T20:18:27.195Z,10.53
2022-11-25T20:21:05.621Z,12.17
2022-11-25T20:23:52.246Z,15.73
2022-11-25T20:26:27.123Z,10.37
2022-11-25T20:29:01.272Z,10.90
2022-11-25T20:31:30.723Z,10.20
2022-11-25T20:33:58.408Z,9.10
2022-11-25T20:36:38.581Z,9.23
2022-11-25T20:39:06.024Z,15.10
2022-11-25T20:41:33.917Z,13.17
2022-11-25T20:44:08.185Z,11.97
2022-11-25T20:46:35.706Z,11.57
2022-11-25T20:49:19.382Z,11.57
2022-11-25T20:51:46.975Z,9.60
2022-11-25T20:54:14.945Z,8.80
2022-11-25T20:56:49.296Z,9.67
2022-11-25T20:59:22.582Z,14.27
2022-11-25T21:02:01.341Z,12.00
2022-11-25T21:04:28.923Z,14.30
2022-11-25T21:06:56.596Z,12.03
2022-11-25T21:09:34.179Z,11.07
2022-11-25T21:12:10.331Z,12.80
2022-11-25T21:14:46.268Z,11.37
2022-11-25T21:17:14.008Z,11.57
2022-11-25T21:19:41.377Z,10.00
2022-11-25T21:22:21.199Z,15.13
2022-11-25T21:24:49.134Z,10.07
2022-11-25T21:27:17.597Z,13.37
2022-11-25T21:29:53.245Z,12.30
2022-11-25T21:32:26.415Z,13.57
2022-11-25T21:35:02.201Z,17.63
2022-11-25T21:37:37.888Z,10.33
2022-11-25T21:40:12.218Z,13.57
2022-11-25T21:42:39.770Z,14.73
2022-11-25T21:45:10.251Z,13.07
2022-11-25T21:47:44.240Z,14.07
2022-11-25T21:50:16.238Z,20.47
2022-11-25T21:52:43.665Z,10.93
2022-11-25T21:55:20.176Z,14.67
2022-11-25T21:57:47.598Z,15.07
2022-11-25T22:00:30.228Z,11.30
2022-11-25T22:02:58.756Z,12.00
2022-11-25T22:05:26.339Z,14.60
2022-11-25T22:08:01.373Z,14.37
2022-11-25T22:10:36.516Z,9.77
2022-11-25T22:13:11.173Z,12.27
2022-11-25T22:15:38.591Z,14.03
2022-11-25T22:18:18.181Z,12.57
2022-11-25T22:20:50.628Z,18.93
2022-11-25T22:23:28.224Z,20.90
2022-11-25T22:25:56.085Z,15.20
2022-11-25T22:28:35.187Z,16.77
2022-11-25T22:31:06.554Z,19.50
2022-11-25T22:33:43.372Z,14.97
2022-11-25T22:36:26.144Z,10.33
2022-11-25T22:39:00.195Z,12.80
2022-11-25T22:41:27.733Z,13.77
2022-11-25T22:43:55.156Z,8.13
2022-11-25T22:46:29.171Z,12.80
2022-11-25T22:48:56.936Z,14.37
2022-11-25T22:51:27.837Z,16.13
2022-11-25T22:54:02.211Z,12.40
2022-11-25T22:56:30.656Z,11.50
2022-11-25T22:59:00.379Z,9.33
2022-11-25T23:01:34.287Z,10.13
2022-11-25T23:04:03.062Z,9.53
2022-11-25T23:06:33.414Z,9.20
2022-11-25T23:09:09.175Z,17.13
2022-11-25T23:11:43.256Z,14.33
2022-11-25T23:14:18.184Z,18.93
2022-11-25T23:16:45.662Z,14.10
2022-11-25T23:19:16.866Z,20.90
2022-11-25T23:21:52.237Z,24.47
2022-11-25T23:24:19.637Z,21.27
2022-11-25T23:26:47.110Z,16.27
2022-11-25T23:29:21.188Z,21.30
2022-11-25T23:31:48.793Z,16.40
2022-11-25T23:34:16.518Z,17.93
2022-11-25T23:36:54.359Z,24.70
2022-11-25T23:39:24.049Z,25.90
2022-11-25T23:41:51.923Z,18.97
2022-11-25T23:44:35.367Z,19.53
2022-11-25T23:47:06.145Z,22.87
2022-11-25T23:49:51.194Z,17.77
2022-11-25T23:52:24.636Z,17.17
2022-11-25T23:55:02.307Z,21.90
2022-11-25T23:57:34.162Z,23.57
